Time;durP1;ratioP1;P1;durP2;ratioP2;P2;SDS_P1;SDS_P2;PMS_P1;PMS_P2;Temp;Humidity;BMP_temperature;BMP_pressure;BME280_temperature;BME280_humidity;BME280_pressure;Samples;Min_cycle;Max_cycle;Signal;HPM_P1;HPM_P2
2022/03/25 00:02:15;;;;;;;143.70;66.28;;;1.40;82.90;;;;;;5074629;28;20115;-91
2022/03/25 00:04:40;;;;;;;142.27;64.38;;;1.30;82.90;;;;;;5074412;28;20067;-91
2022/03/25 00:07:07;;;;;;;149.85;69.03;;;1.30;83.20;;;;;;5074504;28;20055;-91
2022/03/25 00:09:33;;;;;;;144.70;66.63;;;1.20;83.50;;;;;;5074236;28;20028;-91
2022/03/25 00:11:59;;;;;;;130.20;60.90;;;1.10;83.70;;;;;;5073993;28;20021;-90
2022/03/25 00:14:25;;;;;;;145.10;64.35;;;1.10;83.70;;;;;;5074125;28;20017;-90
2022/03/25 00:16:51;;;;;;;152.52;67.32;;;1.10;84.10;;;;;;5074397;28;20040;-90
2022/03/25 00:19:17;;;;;;;146.45;66.22;;;1.10;84.00;;;;;;5074303;28;20059;-90
2022/03/25 00:21:43;;;;;;;136.07;63.47;;;1.10;84.00;;;;;;5074310;28;20031;-90
2022/03/25 00:24:09;;;;;;;186.27;76.75;;;1.10;83.90;;;;;;5072909;28;20032;-90
2022/03/25 00:26:34;;;;;;;212.77;91.05;;;1.10;84.00;;;;;;5073138;28;20032;-90
2022/03/25 00:29:00;;;;;;;311.52;121.88;;;1.10;83.90;;;;;;5073513;28;20049;-90
2022/03/25 00:31:26;;;;;;;298.58;122.25;;;1.10;84.10;;;;;;5073726;28;20025;-91
2022/03/25 00:33:52;;;;;;;306.38;122.53;;;1.00;84.00;;;;;;5074078;28;20107;-90
2022/03/25 00:36:19;;;;;;;283.35;112.05;;;1.00;84.40;;;;;;5073789;28;20443;-90
2022/03/25 00:38:45;;;;;;;345.67;128.82;;;0.90;84.60;;;;;;5073496;28;20029;-91
2022/03/25 00:41:12;;;;;;;338.48;138.93;;;0.80;84.70;;;;;;5073880;28;20078;-91
2022/03/25 00:43:42;;;;;;;358.33;138.60;;;0.80;84.90;;;;;;5074074;28;20055;-91
2022/03/25 00:46:08;;;;;;;350.35;142.27;;;0.70;85.00;;;;;;5073623;28;20111;-90
2022/03/25 00:48:34;;;;;;;371.50;149.55;;;0.80;85.30;;;;;;5073303;28;20025;-91
2022/03/25 00:51:00;;;;;;;319.27;135.05;;;0.80;85.40;;;;;;5073440;28;20059;-91
2022/03/25 00:53:25;;;;;;;323.25;140.15;;;0.80;85.50;;;;;;5073430;28;20475;-91
2022/03/25 00:55:52;;;;;;;328.45;140.77;;;0.80;85.40;;;;;;5073524;28;20387;-91
2022/03/25 00:58:18;;;;;;;250.30;110.45;;;0.80;85.40;;;;;;5073505;28;20017;-90
2022/03/25 01:00:44;;;;;;;246.95;113.70;;;0.70;85.40;;;;;;5073145;28;20052;-91
2022/03/25 01:03:11;;;;;;;215.00;99.15;;;0.70;85.50;;;;;;5073335;28;20070;-91
2022/03/25 01:05:37;;;;;;;228.10;104.00;;;0.70;85.60;;;;;;5072776;28;20052;-91
2022/03/25 01:08:04;;;;;;;188.57;87.57;;;0.60;85.70;;;;;;5072562;28;20032;-91
2022/03/25 01:10:31;;;;;;;162.90;78.80;;;0.60;85.80;;;;;;5073284;28;20024;-91
2022/03/25 01:12:57;;;;;;;160.25;77.68;;;0.60;86.10;;;;;;5073462;28;20028;-91
2022/03/25 01:15:23;;;;;;;163.07;77.10;;;0.60;86.50;;;;;;5073238;28;20387;-91
2022/03/25 01:17:49;;;;;;;165.43;77.57;;;0.60;86.50;;;;;;5073119;28;20021;-91
2022/03/25 01:20:14;;;;;;;145.15;70.82;;;0.60;86.70;;;;;;5073245;28;20025;-91
2022/03/25 01:22:40;;;;;;;151.15;72.63;;;0.60;86.60;;;;;;5073294;28;20111;-91
2022/03/25 01:25:08;;;;;;;147.18;70.88;;;0.60;86.70;;;;;;5073410;28;20386;-91
2022/03/25 01:27:34;;;;;;;143.68;70.25;;;0.60;86.70;;;;;;5073274;28;20111;-91
2022/03/25 01:30:00;;;;;;;147.05;69.35;;;0.50;87.00;;;;;;5072743;28;20143;-91
2022/03/25 01:32:26;;;;;;;138.57;67.78;;;0.50;86.90;;;;;;5073163;28;20043;-91
2022/03/25 01:34:52;;;;;;;144.93;66.60;;;0.50;87.10;;;;;;5073186;28;20016;-91
2022/03/25 01:37:17;;;;;;;151.63;73.22;;;0.40;87.00;;;;;;5072939;28;20739;-91
2022/03/25 01:39:43;;;;;;;130.10;63.58;;;0.40;87.20;;;;;;5073006;28;20048;-91
2022/03/25 01:42:10;;;;;;;135.43;67.63;;;0.40;87.30;;;;;;5073090;28;20056;-91
2022/03/25 01:44:36;;;;;;;141.90;68.18;;;0.40;87.40;;;;;;5073593;28;20119;-91
2022/03/25 01:47:03;;;;;;;144.15;67.88;;;0.40;87.80;;;;;;5073104;28;20071;-91
2022/03/25 01:49:29;;;;;;;132.40;65.22;;;0.40;88.20;;;;;;5072987;28;20025;-91
2022/03/25 01:52:00;;;;;;;139.38;66.50;;;0.40;88.40;;;;;;5075872;28;20107;-91
2022/03/25 01:54:30;;;;;;;128.40;61.38;;;0.30;88.30;;;;;;5076981;28;20020;-91
2022/03/25 01:57:02;;;;;;;134.20;62.22;;;0.40;88.20;;;;;;5076867;28;20017;-91
2022/03/25 01:59:29;;;;;;;135.38;61.97;;;0.30;88.40;;;;;;5076825;28;20106;-90
2022/03/25 02:01:55;;;;;;;130.25;61.42;;;0.30;89.00;;;;;;5076863;28;20024;-90
2022/03/25 02:04:22;;;;;;;112.75;57.10;;;0.30;89.10;;;;;;5076802;28;20055;-91
2022/03/25 02:06:48;;;;;;;112.75;57.25;;;0.40;89.10;;;;;;5076943;28;20028;-90
2022/03/25 02:09:14;;;;;;;112.53;55.20;;;0.30;89.10;;;;;;5077828;28;20024;-91
2022/03/25 02:11:40;;;;;;;98.55;50.20;;;0.30;89.60;;;;;;5076806;28;20021;-90
2022/03/25 02:14:07;;;;;;;102.75;53.13;;;0.30;89.60;;;;;;5077203;28;20040;-91
2022/03/25 02:16:39;;;;;;;100.82;50.25;;;0.30;89.90;;;;;;5076587;28;20020;-92
2022/03/25 02:19:06;;;;;;;97.28;49.42;;;0.30;89.90;;;;;;5076536;28;20360;-91
2022/03/25 02:21:33;;;;;;;92.43;47.95;;;0.30;89.80;;;;;;5076755;28;20051;-91
2022/03/25 02:24:00;;;;;;;97.43;49.80;;;0.30;90.20;;;;;;5076728;28;20462;-91
2022/03/25 02:26:27;;;;;;;86.40;47.08;;;0.20;90.20;;;;;;5076472;28;20029;-91
2022/03/25 02:28:53;;;;;;;94.85;47.08;;;0.20;90.30;;;;;;5076859;28;20494;-90
2022/03/25 02:31:19;;;;;;;89.20;44.72;;;0.10;90.40;;;;;;5076529;28;20021;-90
2022/03/25 02:33:44;;;;;;;90.93;45.50;;;0.10;90.60;;;;;;5076595;28;20455;-90
2022/03/25 02:36:10;;;;;;;82.00;44.47;;;0.10;90.70;;;;;;5076178;28;20491;-90
2022/03/25 02:38:37;;;;;;;82.72;44.83;;;0.20;91.20;;;;;;5076086;28;20024;-90
2022/03/25 02:41:03;;;;;;;76.30;42.45;;;0.20;91.00;;;;;;5075920;28;20021;-90
2022/03/25 02:43:29;;;;;;;84.63;41.47;;;0.10;91.40;;;;;;5075900;28;20533;-91
2022/03/25 02:45:55;;;;;;;78.63;43.25;;;0.10;91.20;;;;;;5075930;28;20035;-90
2022/03/25 02:48:20;;;;;;;75.85;40.05;;;0.10;91.20;;;;;;5075969;28;20025;-91
2022/03/25 02:50:46;;;;;;;71.80;41.17;;;0.10;91.30;;;;;;5076314;28;20390;-91
2022/03/25 02:53:15;;;;;;;68.55;37.90;;;0.10;91.40;;;;;;5076023;28;20352;-91
2022/03/25 02:55:42;;;;;;;75.80;40.88;;;0.10;91.50;;;;;;5075871;28;20197;-91
2022/03/25 02:58:08;;;;;;;70.63;39.72;;;0.00;91.50;;;;;;5075630;28;20070;-91
2022/03/25 03:00:34;;;;;;;77.18;40.85;;;0.00;91.60;;;;;;5075689;28;20115;-90
2022/03/25 03:03:01;;;;;;;75.00;40.40;;;0.00;91.70;;;;;;5075210;28;20024;-91
2022/03/25 03:05:27;;;;;;;76.25;40.97;;;0.10;91.90;;;;;;5075545;28;20435;-91
2022/03/25 03:07:54;;;;;;;78.05;42.88;;;0.00;91.90;;;;;;5075407;28;20047;-91
2022/03/25 03:10:20;;;;;;;78.82;42.33;;;0.00;92.10;;;;;;5075637;28;20024;-91
2022/03/25 03:12:46;;;;;;;80.68;43.85;;;0.00;92.10;;;;;;5075585;28;20596;-91
2022/03/25 03:15:17;;;;;;;76.07;41.83;;;0.10;92.20;;;;;;5075584;28;20024;-91
2022/03/25 03:17:45;;;;;;;76.43;41.40;;;0.00;92.60;;;;;;5075369;28;20087;-91
2022/03/25 03:20:11;;;;;;;72.07;39.08;;;0.00;92.90;;;;;;5076198;28;20025;-91
2022/03/25 03:22:37;;;;;;;73.85;41.15;;;0.00;93.00;;;;;;5075464;28;20036;-91
2022/03/25 03:25:04;;;;;;;66.30;38.55;;;0.00;93.20;;;;;;5075064;28;20020;-90
2022/03/25 03:27:30;;;;;;;65.68;37.00;;;0.00;93.70;;;;;;5075053;28;20024;-90
2022/03/25 03:29:56;;;;;;;52.83;29.10;;;-0.10;93.70;;;;;;5074793;28;20102;-90
2022/03/25 03:32:23;;;;;;;59.50;30.48;;;-0.10;96.70;;;;;;5075916;28;20029;-90
2022/03/25 03:34:49;;;;;;;48.40;27.90;;;0.00;97.20;;;;;;5075332;28;20497;-90
2022/03/25 03:37:15;;;;;;;56.33;27.70;;;0.10;99.60;;;;;;5074942;28;20029;-90
2022/03/25 03:39:41;;;;;;;51.88;26.73;;;0.20;99.50;;;;;;5074931;28;20040;-90
2022/03/25 03:42:08;;;;;;;44.97;25.98;;;0.30;99.90;;;;;;5075157;28;20025;-90
2022/03/25 03:44:36;;;;;;;51.03;26.23;;;0.40;99.90;;;;;;5074855;28;20032;-90
2022/03/25 03:47:03;;;;;;;43.20;26.15;;;0.50;99.90;;;;;;5074934;28;20062;-90
2022/03/25 03:49:29;;;;;;;42.58;25.65;;;0.50;99.90;;;;;;5074794;28;20031;-90
2022/03/25 03:51:54;;;;;;;41.75;23.60;;;0.60;99.90;;;;;;5074833;28;20020;-90
2022/03/25 03:54:20;;;;;;;37.25;23.17;;;0.60;99.90;;;;;;5074761;28;20025;-90
2022/03/25 03:56:46;;;;;;;41.15;24.60;;;0.60;99.90;;;;;;5074813;28;20482;-90
2022/03/25 03:59:12;;;;;;;37.75;22.23;;;0.60;99.90;;;;;;5074884;28;20070;-90
2022/03/25 04:01:38;;;;;;;30.27;20.30;;;0.60;99.90;;;;;;5074559;28;20032;-90
2022/03/25 04:04:04;;;;;;;32.95;19.80;;;0.70;99.90;;;;;;5074241;28;20028;-90
2022/03/25 04:06:29;;;;;;;32.20;19.15;;;0.70;99.90;;;;;;5074493;28;20035;-90
2022/03/25 04:08:56;;;;;;;28.92;18.77;;;0.90;99.90;;;;;;5074217;28;20029;-89
2022/03/25 04:11:21;;;;;;;29.50;18.25;;;0.90;99.90;;;;;;5075413;28;20359;-90
2022/03/25 04:13:47;;;;;;;26.30;16.27;;;1.00;99.90;;;;;;5073518;28;20031;-89
2022/03/25 04:16:13;;;;;;;29.73;16.90;;;1.10;99.90;;;;;;5074295;28;20024;-90
2022/03/25 04:18:39;;;;;;;27.83;16.80;;;1.20;99.90;;;;;;5074358;28;20024;-89
2022/03/25 04:21:05;;;;;;;29.48;17.58;;;1.20;99.90;;;;;;5074000;28;20513;-89
2022/03/25 04:23:31;;;;;;;26.80;16.00;;;1.30;99.90;;;;;;5074152;28;20078;-90
2022/03/25 04:25:57;;;;;;;30.73;16.60;;;1.40;99.90;;;;;;5073958;28;20020;-90
2022/03/25 04:28:23;;;;;;;28.58;15.80;;;1.40;99.90;;;;;;5074491;28;20028;-90
2022/03/25 04:30:49;;;;;;;28.92;17.05;;;1.40;99.90;;;;;;5074730;28;20028;-90
2022/03/25 04:33:14;;;;;;;31.30;17.35;;;1.40;99.90;;;;;;5073900;28;20024;-89
2022/03/25 04:35:40;;;;;;;32.50;18.73;;;1.50;99.90;;;;;;5073976;28;20029;-89
2022/03/25 04:38:06;;;;;;;31.27;17.60;;;1.50;99.90;;;;;;5073914;28;20033;-90
2022/03/25 04:40:32;;;;;;;27.67;16.13;;;1.50;99.90;;;;;;5073864;28;20032;-89
2022/03/25 04:43:00;;;;;;;25.85;15.90;;;1.60;99.90;;;;;;5073529;28;20029;-89
2022/03/25 04:45:27;;;;;;;26.38;14.93;;;1.60;99.90;;;;;;5073949;28;20019;-90
2022/03/25 04:47:53;;;;;;;29.30;16.13;;;1.60;99.90;;;;;;5073689;28;20051;-89
2022/03/25 04:50:19;;;;;;;43.65;18.98;;;1.60;99.90;;;;;;5073239;28;20029;-89
2022/03/25 04:52:46;;;;;;;59.33;22.35;;;1.70;99.90;;;;;;5073812;28;20025;-89
2022/03/25 04:55:12;;;;;;;35.08;17.35;;;1.70;99.90;;;;;;5073332;28;20031;-90
2022/03/25 04:57:39;;;;;;;28.98;16.70;;;1.80;99.90;;;;;;5073014;28;20021;-89
2022/03/25 05:00:05;;;;;;;24.95;16.25;;;1.80;99.90;;;;;;5072998;28;20027;-89
2022/03/25 05:02:32;;;;;;;29.83;16.55;;;1.80;99.90;;;;;;5073260;28;20029;-89
2022/03/25 05:04:58;;;;;;;26.80;16.27;;;1.90;99.90;;;;;;5073574;28;20048;-89
2022/03/25 05:07:24;;;;;;;28.67;16.30;;;1.90;99.90;;;;;;5072948;28;20483;-90
2022/03/25 05:09:50;;;;;;;27.83;17.58;;;1.90;99.90;;;;;;5073461;28;20066;-89
2022/03/25 05:12:15;;;;;;;29.10;16.75;;;1.90;99.90;;;;;;5073074;28;20021;-90
2022/03/25 05:14:41;;;;;;;28.02;16.33;;;1.90;99.90;;;;;;5073420;28;20036;-89
2022/03/25 05:17:07;;;;;;;25.05;16.75;;;2.00;99.90;;;;;;5074531;28;20104;-90
2022/03/25 05:19:33;;;;;;;27.63;16.63;;;2.00;99.90;;;;;;5073516;28;20383;-90
2022/03/25 05:21:59;;;;;;;30.17;16.15;;;2.00;99.90;;;;;;5073147;28;20044;-90
2022/03/25 05:24:26;;;;;;;25.15;15.80;;;2.10;99.90;;;;;;5072905;28;20021;-89
2022/03/25 05:26:56;;;;;;;25.30;16.05;;;2.20;99.90;;;;;;5073884;28;20509;-89
2022/03/25 05:29:22;;;;;;;30.65;16.02;;;2.30;99.90;;;;;;5073051;28;20048;-89
2022/03/25 05:31:48;;;;;;;25.70;15.35;;;2.30;99.90;;;;;;5073120;28;20024;-89
2022/03/25 05:34:14;;;;;;;27.00;15.93;;;2.40;99.90;;;;;;5074179;28;20130;-96
2022/03/25 05:36:39;;;;;;;31.13;16.80;;;2.40;99.90;;;;;;5073553;28;20021;-96
2022/03/25 05:39:05;;;;;;;31.73;17.75;;;2.50;99.90;;;;;;5075912;28;20031;-95
2022/03/25 05:41:32;;;;;;;29.98;17.80;;;2.50;99.90;;;;;;5074307;28;20029;-95
2022/03/25 05:43:58;;;;;;;30.02;16.50;;;2.60;99.90;;;;;;5074101;28;20028;-95
2022/03/25 05:46:23;;;;;;;29.95;16.30;;;2.70;99.80;;;;;;5073408;28;20025;-95
2022/03/25 05:48:49;;;;;;;31.60;16.15;;;2.70;99.60;;;;;;5073213;28;20478;-95
2022/03/25 05:51:16;;;;;;;24.95;15.88;;;2.80;99.50;;;;;;5073171;28;20441;-95
2022/03/25 05:53:43;;;;;;;24.48;15.05;;;2.90;99.40;;;;;;5072915;28;20016;-94
2022/03/25 05:56:10;;;;;;;25.80;15.02;;;3.00;99.40;;;;;;5075856;28;20009;-91
2022/03/25 05:58:36;;;;;;;25.67;15.93;;;3.00;99.20;;;;;;5075677;28;20050;-92
2022/03/25 16:33:09;;;;;;;30.48;19.25;;;7.90;74.30;;;;;;5092036;28;20772;-93
2022/03/25 16:35:35;;;;;;;32.42;18.80;;;7.70;74.60;;;;;;5057794;28;20070;-94
2022/03/25 16:38:02;;;;;;;29.48;19.75;;;7.60;75.40;;;;;;5074720;28;20065;-94
2022/03/25 16:40:28;;;;;;;32.80;19.55;;;7.60;75.90;;;;;;5074314;28;20093;-94
2022/03/25 16:42:54;;;;;;;36.70;20.70;;;7.50;76.20;;;;;;5073976;28;20471;-95
2022/03/25 16:45:20;;;;;;;28.73;19.73;;;7.50;76.50;;;;;;5076290;28;20383;-95
2022/03/25 16:47:49;;;;;;;28.48;19.40;;;7.40;76.80;;;;;;5073728;28;20031;-96
2022/03/25 16:50:17;;;;;;;35.72;20.55;;;7.50;76.50;;;;;;5073940;28;20024;-95
2022/03/25 16:52:43;;;;;;;31.75;21.13;;;7.50;76.80;;;;;;5073835;28;20368;-96
2022/03/25 16:55:12;;;;;;;31.50;19.67;;;7.50;76.70;;;;;;5073834;28;20027;-96
2022/03/25 16:57:38;;;;;;;28.65;19.15;;;7.60;76.80;;;;;;5073572;28;20078;-96
2022/03/25 17:00:07;;;;;;;34.40;19.17;;;7.60;76.80;;;;;;5057207;28;20025;-96
2022/03/25 17:02:33;;;;;;;31.98;19.30;;;7.50;76.60;;;;;;5091499;28;20020;-96
2022/03/25 17:04:59;;;;;;;34.60;19.23;;;7.50;76.70;;;;;;5073692;28;20093;-95
2022/03/25 17:07:27;;;;;;;35.53;20.30;;;7.50;76.70;;;;;;5073486;28;20035;-96
2022/03/25 17:09:57;;;;;;;33.55;19.77;;;7.50;76.60;;;;;;5072692;28;20036;-96
2022/03/25 17:12:23;;;;;;;31.25;18.83;;;7.40;76.70;;;;;;5073214;28;20024;-96
2022/03/25 17:14:48;;;;;;;40.65;21.17;;;7.40;76.80;;;;;;5073592;28;20081;-95
2022/03/25 17:17:14;;;;;;;41.47;21.65;;;7.40;76.90;;;;;;5073341;28;20028;-96
2022/03/25 17:19:42;;;;;;;36.58;21.65;;;7.30;76.90;;;;;;5073347;28;20379;-96
2022/03/25 17:22:09;;;;;;;35.42;21.73;;;7.30;76.90;;;;;;5071856;28;20036;-95
2022/03/25 17:24:36;;;;;;;34.80;21.70;;;7.30;76.90;;;;;;5073299;28;20024;-96
2022/03/25 17:27:04;;;;;;;29.40;19.30;;;7.20;76.90;;;;;;5072836;28;20109;-96
2022/03/25 17:29:32;;;;;;;32.85;19.80;;;7.20;76.90;;;;;;5073278;28;20052;-96
2022/03/25 17:31:59;;;;;;;28.42;19.27;;;7.20;76.90;;;;;;5072807;28;20490;-96
2022/03/25 17:34:26;;;;;;;28.95;18.40;;;7.20;77.00;;;;;;5072905;28;20021;-96
2022/03/25 17:36:52;;;;;;;29.70;18.95;;;7.20;77.00;;;;;;5056607;28;20471;-96
2022/03/25 17:39:18;;;;;;;29.70;18.75;;;7.10;77.10;;;;;;5055899;28;20032;-96
2022/03/25 17:41:46;;;;;;;33.00;19.67;;;7.10;77.00;;;;;;5072641;28;20123;-96
2022/03/25 17:44:14;;;;;;;29.90;18.58;;;7.10;77.00;;;;;;5060802;28;20031;-96
2022/03/25 17:46:43;;;;;;;30.00;18.42;;;7.10;77.20;;;;;;5059321;28;20078;-96
2022/03/25 17:49:10;;;;;;;33.40;19.55;;;7.10;77.10;;;;;;5059458;28;20028;-96
2022/03/25 17:51:36;;;;;;;32.22;18.70;;;7.10;77.10;;;;;;5059331;28;20029;-96
2022/03/25 17:54:04;;;;;;;31.98;18.83;;;7.10;77.10;;;;;;5059614;28;20031;-96
2022/03/25 17:56:30;;;;;;;32.38;20.67;;;7.10;77.20;;;;;;5059031;28;20394;-96
2022/03/25 17:59:00;;;;;;;28.75;18.63;;;7.10;77.20;;;;;;5077040;28;20021;-96
2022/03/25 18:01:28;;;;;;;33.35;21.98;;;7.10;77.30;;;;;;5059241;28;20405;-96
2022/03/25 18:03:54;;;;;;;30.33;19.33;;;7.00;77.50;;;;;;5059282;28;20029;-96
2022/03/25 18:06:22;;;;;;;34.22;20.33;;;7.00;77.60;;;;;;5076702;28;20020;-96
2022/03/25 18:08:49;;;;;;;31.75;19.30;;;6.90;77.80;;;;;;5076619;28;20024;-95
2022/03/25 18:11:14;;;;;;;28.00;19.17;;;6.90;77.90;;;;;;5058865;28;20024;-95
2022/03/25 18:13:45;;;;;;;30.85;19.17;;;6.90;78.10;;;;;;5075416;28;20016;-96
2022/03/25 18:16:11;;;;;;;28.88;18.70;;;6.80;78.20;;;;;;5058789;28;20378;-96
2022/03/25 18:18:42;;;;;;;29.48;18.50;;;6.80;78.40;;;;;;5058994;28;20219;-96
2022/03/25 18:21:08;;;;;;;33.55;18.63;;;6.80;78.60;;;;;;5058849;28;20029;-96
2022/03/25 18:23:37;;;;;;;29.63;19.13;;;6.80;78.70;;;;;;5041601;28;20111;-96
2022/03/25 18:26:04;;;;;;;28.85;18.65;;;6.70;79.00;;;;;;5058516;28;20024;-96
2022/03/25 18:28:31;;;;;;;28.98;17.60;;;6.70;79.10;;;;;;5076478;28;20047;-96
2022/03/25 18:30:58;;;;;;;30.20;18.00;;;6.70;79.30;;;;;;5058191;28;20040;-96
2022/03/25 18:33:24;;;;;;;25.73;16.05;;;6.70;79.30;;;;;;5058544;28;20021;-96
2022/03/25 18:35:50;;;;;;;25.33;15.57;;;6.60;79.30;;;;;;5058605;28;20025;-96
2022/03/25 18:38:17;;;;;;;29.95;17.30;;;6.60;79.70;;;;;;5058435;28;20029;-96
2022/03/25 18:40:46;;;;;;;31.17;17.70;;;6.60;79.70;;;;;;5058204;28;20025;-96
2022/03/25 18:43:14;;;;;;;24.15;16.00;;;6.60;79.90;;;;;;5059097;28;20025;-96
2022/03/25 18:45:42;;;;;;;30.80;17.02;;;6.60;79.80;;;;;;5058836;28;20031;-96
2022/03/25 18:48:11;;;;;;;23.65;15.35;;;6.60;80.20;;;;;;5058465;28;20031;-96
2022/03/25 18:50:38;;;;;;;29.70;16.55;;;6.60;80.20;;;;;;5058492;28;20493;-95
2022/03/25 18:53:04;;;;;;;29.90;17.05;;;6.60;80.30;;;;;;5058131;28;20024;-96
2022/03/25 18:55:30;;;;;;;32.03;18.05;;;6.60;80.20;;;;;;5056681;28;20017;-95
2022/03/25 18:57:56;;;;;;;30.35;17.88;;;6.50;80.30;;;;;;5057875;28;20031;-96
2022/03/25 19:00:23;;;;;;;32.50;18.13;;;6.50;80.50;;;;;;5075943;28;20032;-96
2022/03/25 19:02:52;;;;;;;33.67;18.70;;;6.50;80.60;;;;;;5058768;28;20028;-96
2022/03/25 19:05:20;;;;;;;33.10;18.38;;;6.50;80.80;;;;;;5057897;28;20029;-96
2022/03/25 19:07:46;;;;;;;31.50;17.15;;;6.40;80.90;;;;;;5042075;28;20094;-96
2022/03/25 19:10:12;;;;;;;26.75;16.40;;;6.50;81.00;;;;;;5057830;28;20032;-96
2022/03/25 19:12:38;;;;;;;26.90;15.95;;;6.50;81.00;;;;;;5057893;28;20517;-96
2022/03/25 19:15:05;;;;;;;22.55;15.50;;;6.40;81.20;;;;;;5074685;28;20433;-96
2022/03/25 19:17:31;;;;;;;29.58;17.63;;;6.40;81.20;;;;;;5057653;28;20459;-96
2022/03/25 19:19:58;;;;;;;29.92;17.08;;;6.40;81.10;;;;;;5075706;28;20036;-96
2022/03/25 19:22:23;;;;;;;28.77;17.63;;;6.40;81.40;;;;;;5057225;28;20025;-96
2022/03/25 19:24:50;;;;;;;29.98;17.63;;;6.40;81.40;;;;;;5075133;28;20024;-96
2022/03/25 19:27:16;;;;;;;29.73;16.95;;;6.40;81.50;;;;;;5057570;28;20364;-92
2022/03/25 19:29:42;;;;;;;25.13;15.38;;;6.30;81.70;;;;;;5056112;28;20037;-91
2022/03/25 19:32:09;;;;;;;24.35;15.85;;;6.30;81.80;;;;;;5074840;28;20094;-92
2022/03/25 19:34:35;;;;;;;28.08;16.92;;;6.20;81.80;;;;;;5057512;28;20494;-91
2022/03/25 19:37:05;;;;;;;30.25;18.10;;;6.20;81.80;;;;;;5075240;28;20025;-92
2022/03/25 19:39:31;;;;;;;29.90;18.50;;;6.20;82.00;;;;;;5057895;28;20016;-93
2022/03/25 19:41:57;;;;;;;29.73;18.73;;;6.20;82.00;;;;;;5057685;28;20257;-92
2022/03/25 19:44:25;;;;;;;27.88;17.60;;;6.20;82.10;;;;;;5058392;28;20483;-93
2022/03/25 19:46:51;;;;;;;29.98;16.88;;;6.10;82.00;;;;;;5057849;28;20133;-92
2022/03/25 19:49:17;;;;;;;27.80;16.98;;;6.10;82.20;;;;;;5041663;28;20074;-92
2022/03/25 19:51:44;;;;;;;27.15;16.83;;;6.10;82.20;;;;;;5057192;28;20035;-94
2022/03/25 19:54:10;;;;;;;24.30;14.48;;;6.00;82.20;;;;;;5057745;28;20028;-92
2022/03/25 19:56:36;;;;;;;23.42;14.45;;;6.00;82.30;;;;;;5040634;28;20024;-95
2022/03/25 19:59:02;;;;;;;24.60;14.80;;;6.00;82.40;;;;;;5057063;28;20021;-94
2022/03/25 20:01:28;;;;;;;24.80;15.95;;;6.00;82.30;;;;;;5057884;28;20029;-93
2022/03/25 20:03:54;;;;;;;23.67;14.80;;;6.00;82.50;;;;;;5057958;28;20104;-93
2022/03/25 20:06:22;;;;;;;28.67;16.25;;;6.00;82.50;;;;;;5057575;28;20046;-93
2022/03/25 20:08:48;;;;;;;26.95;15.88;;;5.90;82.80;;;;;;5056167;28;20475;-93
2022/03/25 20:11:18;;;;;;;26.77;16.75;;;5.80;82.80;;;;;;5056368;28;20123;-93
2022/03/25 20:13:49;;;;;;;26.95;16.27;;;5.70;83.00;;;;;;5056776;28;20021;-93
2022/03/25 20:16:15;;;;;;;26.00;16.30;;;5.70;83.60;;;;;;5056538;28;20032;-93
2022/03/25 20:18:42;;;;;;;25.02;15.73;;;5.60;83.80;;;;;;5057424;28;20017;-95
2022/03/25 20:21:08;;;;;;;26.55;15.50;;;5.50;84.00;;;;;;5057926;28;20557;-93
2022/03/25 20:23:35;;;;;;;33.58;19.35;;;5.40;84.10;;;;;;5056444;28;20034;-93
2022/03/25 20:26:01;;;;;;;28.50;17.67;;;5.30;84.30;;;;;;5057574;28;20120;-96
2022/03/25 20:28:27;;;;;;;27.35;16.80;;;5.30;84.40;;;;;;5057259;28;20056;-96
2022/03/25 20:30:53;;;;;;;25.52;17.10;;;5.20;84.40;;;;;;5056655;28;20111;-94
2022/03/25 20:33:18;;;;;;;30.55;19.42;;;5.10;85.00;;;;;;5056928;28;20017;-96
2022/03/25 20:35:44;;;;;;;36.10;22.42;;;5.00;85.20;;;;;;5059840;28;20031;-96
2022/03/25 20:38:13;;;;;;;32.95;21.77;;;4.90;85.50;;;;;;5057064;28;20025;-95
2022/03/25 20:40:44;;;;;;;35.30;22.33;;;4.80;85.60;;;;;;5056352;28;20021;-95
2022/03/25 20:43:10;;;;;;;37.58;21.77;;;4.70;85.60;;;;;;5056746;28;20056;-95
2022/03/25 20:45:37;;;;;;;42.42;25.52;;;4.60;85.90;;;;;;5058269;28;20467;-95
2022/03/25 20:48:04;;;;;;;42.58;22.48;;;4.60;86.40;;;;;;5074136;28;20025;-94
2022/03/25 20:50:34;;;;;;;42.25;23.67;;;4.50;86.70;;;;;;5056330;28;20475;-94
2022/03/25 20:53:00;;;;;;;;;;;4.40;86.50;;;;;;5057173;28;20099;-95
2022/03/25 20:55:26;;;;;;;36.55;20.55;;;4.30;87.60;;;;;;5056487;28;19912;-94
2022/03/25 20:57:52;;;;;;;39.58;23.58;;;4.30;87.10;;;;;;5056456;28;20042;-94
2022/03/25 21:00:18;;;;;;;39.15;22.65;;;4.20;87.10;;;;;;5056338;28;20382;-95
2022/03/25 21:02:44;;;;;;;37.10;23.33;;;4.20;87.20;;;;;;5056350;28;20039;-94
2022/03/25 21:05:10;;;;;;;39.22;23.05;;;4.10;87.70;;;;;;5056027;28;20094;-94
2022/03/25 21:07:39;;;;;;;40.47;24.25;;;4.10;87.80;;;;;;5056136;28;20075;-94
2022/03/25 21:10:06;;;;;;;40.10;24.00;;;4.00;87.70;;;;;;5056166;28;20074;-94
2022/03/25 21:12:32;;;;;;;41.00;24.10;;;4.00;88.30;;;;;;5055786;28;20029;-95
2022/03/25 21:14:58;;;;;;;42.25;23.90;;;3.90;89.20;;;;;;5056231;28;20380;-94
2022/03/25 21:17:25;;;;;;;41.40;24.58;;;3.90;88.50;;;;;;5056346;28;20021;-96
2022/03/25 21:19:51;;;;;;;42.42;23.45;;;3.80;88.70;;;;;;5059800;28;20048;-95
2022/03/25 21:22:17;;;;;;;38.60;24.00;;;3.80;88.80;;;;;;5059825;28;20032;-94
2022/03/25 21:24:43;;;;;;;42.95;24.17;;;3.70;89.00;;;;;;5059768;28;20031;-94
2022/03/25 21:27:08;;;;;;;50.45;26.73;;;3.70;89.10;;;;;;5059699;28;20021;-95
2022/03/25 21:29:36;;;;;;;50.45;28.20;;;3.60;89.40;;;;;;5059772;28;20028;-94
2022/03/25 21:32:03;;;;;;;49.75;28.33;;;3.60;89.70;;;;;;5059318;28;20048;-95
2022/03/25 21:34:29;;;;;;;46.95;27.15;;;3.60;89.80;;;;;;5059570;28;20020;-95
2022/03/25 21:36:55;;;;;;;48.25;27.58;;;3.50;89.70;;;;;;5060570;28;20119;-94
2022/03/25 21:39:21;;;;;;;51.95;28.88;;;3.50;90.00;;;;;;5059605;28;20023;-95
2022/03/25 21:41:47;;;;;;;63.30;32.40;;;3.50;90.00;;;;;;5059551;28;20020;-96
2022/03/25 21:44:13;;;;;;;65.10;34.35;;;3.40;90.10;;;;;;5058965;28;20105;-95
2022/03/25 21:46:39;;;;;;;70.25;36.85;;;3.40;90.30;;;;;;5059220;28;20024;-95
2022/03/25 21:49:04;;;;;;;84.05;40.78;;;3.40;90.30;;;;;;5059285;28;20027;-95
2022/03/25 21:51:30;;;;;;;87.82;41.75;;;3.30;90.30;;;;;;5059156;28;20056;-95
2022/03/25 21:53:56;;;;;;;85.97;42.25;;;3.30;90.30;;;;;;5059237;28;20021;-94
2022/03/25 21:56:22;;;;;;;80.82;41.40;;;3.30;90.50;;;;;;5059099;28;20021;-95
2022/03/25 21:58:48;;;;;;;78.32;40.08;;;3.20;90.60;;;;;;5059083;28;20360;-95
2022/03/25 22:01:14;;;;;;;81.03;40.67;;;3.20;90.60;;;;;;5058944;28;20115;-96
2022/03/25 22:03:40;;;;;;;82.45;42.38;;;3.10;90.60;;;;;;5059236;28;20046;-95
2022/03/25 22:06:06;;;;;;;79.55;40.00;;;3.00;90.80;;;;;;5059060;28;20029;-95
2022/03/25 22:08:32;;;;;;;75.75;40.38;;;3.00;90.90;;;;;;5059043;28;20027;-96
2022/03/25 22:10:58;;;;;;;74.85;39.15;;;3.00;91.00;;;;;;5058844;28;20032;-96
2022/03/25 22:13:24;;;;;;;78.03;39.65;;;2.90;91.00;;;;;;5058857;28;20025;-95
2022/03/25 22:15:51;;;;;;;70.20;38.25;;;2.90;91.10;;;;;;5058722;28;20024;-96
2022/03/25 22:18:17;;;;;;;69.88;37.38;;;2.90;91.20;;;;;;5058807;28;20025;-96
2022/03/25 22:20:43;;;;;;;71.57;38.97;;;2.90;91.30;;;;;;5058743;28;20021;-96
2022/03/25 22:23:08;;;;;;;67.65;36.85;;;2.80;91.40;;;;;;5058650;28;20028;-96
2022/03/25 22:25:34;;;;;;;71.70;39.83;;;2.80;91.50;;;;;;5058816;28;20043;-95
2022/03/25 22:28:00;;;;;;;68.47;38.03;;;2.70;91.50;;;;;;5058786;28;20111;-96
2022/03/25 22:30:26;;;;;;;71.38;38.35;;;2.70;91.60;;;;;;5058439;28;20020;-96
2022/03/25 22:32:52;;;;;;;68.97;39.70;;;2.70;91.70;;;;;;5058361;28;20136;-95
2022/03/25 22:35:17;;;;;;;67.70;36.30;;;2.70;92.00;;;;;;5058400;28;20387;-95
2022/03/25 22:37:43;;;;;;;68.05;37.92;;;2.60;92.00;;;;;;5058541;28;20116;-96
2022/03/25 22:40:10;;;;;;;66.50;35.83;;;2.60;92.10;;;;;;5058459;28;20032;-95
2022/03/25 22:42:36;;;;;;;69.38;36.17;;;2.60;92.10;;;;;;5058320;28;20059;-95
2022/03/25 22:45:03;;;;;;;60.08;34.33;;;2.60;92.40;;;;;;5058271;28;20059;-95
2022/03/25 22:47:29;;;;;;;67.63;35.92;;;2.60;92.20;;;;;;5058230;28;20035;-96
2022/03/25 22:49:56;;;;;;;59.70;34.40;;;2.50;92.60;;;;;;5058435;28;20035;-96
2022/03/25 22:52:22;;;;;;;64.07;35.90;;;2.60;92.50;;;;;;5058186;28;20028;-96
2022/03/25 22:54:48;;;;;;;61.80;34.45;;;2.50;92.50;;;;;;5058143;28;20486;-95
2022/03/25 22:57:14;;;;;;;61.70;34.72;;;2.50;92.60;;;;;;5058096;28;20017;-95
2022/03/25 22:59:39;;;;;;;59.67;33.47;;;2.50;92.60;;;;;;5057912;28;20017;-95
2022/03/25 23:02:05;;;;;;;60.95;33.55;;;2.50;92.60;;;;;;5057871;28;20479;-94
2022/03/25 23:04:31;;;;;;;58.78;32.95;;;2.50;92.80;;;;;;5057895;28;20060;-95